To NAV CANADA Home Page Login to a new session Search on AWWS site Disclaimer Vers la page française équivalente Tips FAQ What's new on the site To the Forecasts and Observations / NOTAM section To "File a Flight Plan" website Publications and other links Update of the User's profile FIC Telephone Numbers My Weather Data Folder Route Weather Data Regional Weather Data Local Weather Data To the Forecasts and Observations / NOTAM section
Request Generated 01/24/2022 at 23:48:46 UTC . Weather information available at that time is displayed.


Go to a specific product

Save this request

NOTAM

NOTAM


SIGMET
To the Product Selector

SIGMETS GFACN32

GFACN32 - No SIGMET bulletins in effect



AIRMET
To the Product Selector

AIRMETS GFACN32

WACN32 CWEG 242333
AIRMET A2 VALID 242330/250240 CWEG-
CZEG EDMONTON FIR CNL AIRMET A1 242240/250240
RMK GFACN32
END/WACN22/CWAO



PIREP
To the Product Selector

FIR_WINNIPEG (WG)

WG - PIREP not available



METAR/TAF
To the Product Selector

REGINA INTL/SK    

METAR CYQR 242300Z 34007KT 15SM SCT120 BKN260 M22/M27 A3019 RMK AC3CI3 SLP288=
METAR CYQR 242200Z 33010KT 15SM FEW120 SCT250 M21/M25 A3018 RMK AC1CI3 AC TR SLP281=
METAR CYQR 242100Z 33008KT 15SM FEW210 M21/M25 A3017 RMK CI1 CI TR SLP275=

TAF CYQR 242340Z 2500/2524 34007KT P6SM SCT120
BECMG 2506/2508 29008KT
RMK NXT FCST BY 250600Z

MOOSE JAW/AIR VICE MARSHAL C.M. MCEWEN/SK    

METAR CYMJ 242000Z 00000KT 15SM FEW020 FEW110 FEW140 FEW240 M18/M22 A3018 RMK SC1AC1AC1CI1 SLP272=
SPECI CYMJ 242154Z 03004KT 15SM FEW020 FEW110 FEW220 M19/M23 A3019 RMK SC1AC1CI1 LAST OBS/NEXT 251000 UTC SLP275=
METAR CYMJ 242100Z 01003KT 15SM FEW020 FEW110 FEW220 M18/M22 A3018 RMK SC1AC1CI1 SLP272=

TAF CYMJ 242340Z NIL
RMK NO OBS. NXT FCST BY 250600Z


RADAR PCPN RATE
To the Product Selector
Pacific Canada      Western Canada     

SATELLITE VISIBLE
To the Product Selector
West Canada      

SATELLITE INFRARED
To the Product Selector
West Canada     

GRAPHICAL FA CLOUDS & WEATHER FORECASTS
To the Product Selector
Graphical FA gfacn32      

GRAPHICAL FA ICING, TURBULENCE & FREEZING LEVEL FORECASTS
To the Product Selector
Graphical FA gfacn32      

FDTEXT Low Level FD. Temperatures are not forecast for the 3,000-foot level.
To the Product Selector
STN YQR - REGINA. SASK for use 3000 6000 9000 12000 18000
FDCN01 CWAO FCST BASED ON 241200 DATA VALID 241800 17-21 3517-15 3432-16 3441-20 3354-33
FDCN02 CWAO FCST BASED ON 241200 DATA VALID 250000 21-06 3521-16 3425-18 3335-21 3349-36
FDCN03 CWAO FCST BASED ON 241200 DATA VALID 251200 06-17 3419-15 3526-17 3535-23 3647-33



Your time UTC time
Weather data provided by Environment Canada and NAV CANADA